createdAt,value
2022-09-23T00:04:10.493Z,1020.9
2022-09-23T00:19:06.626Z,1020.9
2022-09-23T00:34:02.826Z,1020.6
2022-09-23T00:48:58.616Z,1020.5
2022-09-23T01:03:54.504Z,1020.4
2022-09-23T01:18:50.532Z,1020.2
2022-09-23T01:33:46.787Z,1020.1
2022-09-23T01:48:43.029Z,1020.1
2022-09-23T02:03:39.595Z,1020.2
2022-09-23T02:18:35.529Z,1020.1
2022-09-23T02:33:31.626Z,1020
2022-09-23T02:48:28.231Z,1020
2022-09-23T03:03:24.089Z,1019.8
2022-09-23T03:18:20.078Z,1019.7
2022-09-23T03:33:16.438Z,1019.6
2022-09-23T03:48:12.680Z,1019.6
2022-09-23T04:03:11.687Z,1019.5
2022-09-23T04:33:00.199Z,1019.3
2022-09-23T04:47:55.959Z,1019.3
2022-09-23T05:02:52.027Z,1019.2
2022-09-23T05:17:47.846Z,1019.3
2022-09-23T05:32:43.961Z,1019.3
2022-09-23T05:47:40.676Z,1019.1
2022-09-23T06:02:37.250Z,1019.2
2022-09-23T06:17:33.303Z,1019.1
2022-09-23T06:32:29.301Z,1019.2
2022-09-23T06:47:25.611Z,1019.2
2022-09-23T07:02:22.392Z,1019.1
2022-09-23T07:17:18.790Z,1019.1
2022-09-23T07:32:15.694Z,1019.1
2022-09-23T07:47:11.492Z,1019.1
2022-09-23T08:02:07.818Z,1019
2022-09-23T08:17:04.362Z,1019
2022-09-23T08:32:01.267Z,1018.9
2022-09-23T08:46:58.489Z,1018.7
2022-09-23T09:01:55.662Z,1018.6
2022-09-23T09:17:00.525Z,1018.5
2022-09-23T09:31:49.347Z,1018.4
2022-09-23T09:46:46.215Z,1018.3
2022-09-23T10:01:41.879Z,1018.1
2022-09-23T10:16:38.736Z,1018
2022-09-23T10:31:35.608Z,1018
2022-09-23T10:46:32.171Z,1017.9
2022-09-23T11:01:29.238Z,1017.8
2022-09-23T11:16:26.254Z,1017.7
2022-09-23T11:31:23.024Z,1017.5
2022-09-23T11:46:19.455Z,1017.3
2022-09-23T12:01:16.260Z,1017.2
2022-09-23T12:16:12.952Z,1017.1
2022-09-23T12:31:09.573Z,1016.9
2022-09-23T12:46:06.053Z,1016.7
2022-09-23T13:01:01.579Z,1016.7
2022-09-23T13:15:57.285Z,1016.6
2022-09-23T13:30:53.151Z,1016.5
2022-09-23T13:45:49.182Z,1016.4
2022-09-23T14:00:45.002Z,1016.3
2022-09-23T14:15:40.576Z,1016.1
2022-09-23T14:30:36.616Z,1016
2022-09-23T14:45:32.216Z,1015.9
2022-09-23T15:00:28.277Z,1015.7
2022-09-23T15:15:24.060Z,1015.6
2022-09-23T15:30:19.859Z,1015.6
2022-09-23T15:45:15.848Z,1015.7
2022-09-23T16:00:12.478Z,1015.8
2022-09-23T16:15:07.970Z,1015.7
2022-09-23T16:30:03.692Z,1015.8
2022-09-23T16:44:59.543Z,1015.8
2022-09-23T16:59:55.132Z,1015.9
2022-09-23T17:14:50.452Z,1015.8
2022-09-23T17:29:46.603Z,1015.7
2022-09-23T17:44:42.490Z,1015.7
2022-09-23T17:59:38.573Z,1015.7
2022-09-23T18:14:34.731Z,1015.8
2022-09-23T18:29:30.083Z,1016
2022-09-23T18:44:26.131Z,1015.8
2022-09-23T18:59:22.638Z,1015.9
2022-09-23T19:14:18.886Z,1015.9
2022-09-23T19:29:15.400Z,1015.9
2022-09-23T19:44:11.078Z,1015.9
2022-09-23T19:59:07.199Z,1015.8
2022-09-23T20:14:03.331Z,1015.8
2022-09-23T20:28:59.348Z,1015.8
2022-09-23T20:43:55.434Z,1015.8
2022-09-23T20:58:51.315Z,1015.7
2022-09-23T22:13:32.356Z,1015.8
2022-09-23T22:28:28.555Z,1015.8
2022-09-23T22:43:24.645Z,1015.7
2022-09-23T22:58:31.539Z,1015.6
2022-09-23T23:13:17.212Z,1015.6
2022-09-23T23:28:13.588Z,1015.4
2022-09-23T23:43:09.359Z,1015.5
2022-09-23T23:58:05.927Z,1015.4
